Pas de vigilance météorologique particulière.    Il n'y a aucun avertissement


Webcam Plus d'informations Webcam


vous aimez ? un don permettra le maintien du site

Vigilance Météo
Alertes météo pour la Belgique

Station voisine de DeulemontWebsite of another weatherstation

InfometeoRéférentiel météo en Belgique

Notre ancien site Autre version du site

Autre présentation du siteun concentré d'infos sur une page

le temps à la côte Météo côtière

épaves en mer du Nord Archéologie maritime

orages previsions orages



Marées
Alertes météo pour la France
Alertes météo pour l'Europe
previmeteo  

Rapports METAR à proximité

   
LFQQ - Lille/Lesquin, France
Distance: SE 22 km
Mise à jour: 23-10-2017 18:30
Faible bruine, Nuageux  
Faible bruine, Nuageux  
   Vent: SSO 13 km/h
Vent: SSO 13 km/h
Température: 13°C
Point de rosée: 12°C
Humidité: 94%
Baromètre: 1020 hPa
Nuageux: Mostly Cloudy
visibilité: 6 km
Détails des nuages: Nuageux 243.8 m,
Nuageux 518.2 m,
Nuageux 883.9 m
LFQQ 231630Z AUTO 20007KT 6000 -DZ BKN008 BKN017 BKN029 13/12 Q1020 TEMPO 2000 DZRA OVC003
EBFN - Koksijde (bel-Af, Belgium
Distance: NNO 42 km
Mise à jour: 23-10-2017 18:25
Nuageux  
Nuageux  
   Vent: SSO 17 km/h
Vent: SSO 17 km/h
Température: 13°C
Point de rosée: 13°C
Humidité: 100%
Baromètre: 1019 hPa
Nuageux: Overcast
visibilité: 5 km
Détails des nuages: Nuageux 152.4 m,
Nuageux 823 m
EBFN 231625Z AUTO 20009KT 5000 BKN005/// OVC027/// 13/13 Q1019 YLO
EBOS - Oostende Airport, Belgium
Distance: N 53 km
Mise à jour: 23-10-2017 18:20
Bruine, Pluie, Nuageux  
Bruine, Pluie, Nuageux  
   Vent: SSO 17 km/h
Vent: SSO 17 km/h
Température: 13°C
Point de rosée: 12°C
Humidité: 94%
Baromètre: 1019 hPa
Nuageux: Mostly Cloudy
visibilité: 2.5 km
Détails des nuages: Nuageux 91.4 m,
Nuageux 152.4 m
EBOS 231620Z 20009KT 2500 DZRA BKN003 BKN005 13/12 Q1019 TEMPO 3500 -DZRA BKN006
EBKT - Kortrijk, Belgium
Distance: ESE 66 km
Mise à jour: 01-01-1970 01:00
PAS actuel
  
  
   Vent: calme
Vent: calme
LFAQ - Bray, France
Distance: S 86 km
Mise à jour: 23-10-2017 18:30
Faible bruine, Brouillard, Nuageux  
Faible bruine, Brouillard, Nuageux  
   Vent: Sud 17 km/h
Vent: Sud 17 km/h
Température: 13°C
Point de rosée: 12°C
Humidité: 94%
Baromètre: 1021 hPa
Nuageux: Overcast
visibilité: 4.2 km
Détails des nuages: Nuageux 91.4 m
LFAQ 231630Z AUTO 19009KT 4200 -DZ BR OVC003 13/12 Q1021 TEMPO 1200 RADZ
EHFS - Vlissingen, Netherlands
Distance: NNE 93 km
Mise à jour: 23-10-2017 18:25
Brouillard, Nuageux  
Brouillard, Nuageux  
   Vent: SSO 24 km/h
Vent: SSO 24 km/h
Température: 13°C
Point de rosée: 13°C
Humidité: 100%
Baromètre: 1019 hPa
Nuageux: Mostly Cloudy
visibilité: 4.8 km
Détails des nuages: Peu de nuages 61 m,
Partiellement nuageux 91.4 m,
Nuageux 152.4 m
EHFS 231625Z AUTO 20013KT 4800 BR FEW002/// SCT003/// BKN005/// 13/13 Q1019
LFAT - Le Touquet/P. Pl, France
Distance: OSO 94 km
Mise à jour: 23-10-2017 18:30
Faible bruine, Brouillard, Nuageux  
Faible bruine, Brouillard, Nuageux  
   Vent: SO 15 km/h
Vent: SO 15 km/h
Température: 14°C
Point de rosée: 14°C
Humidité: 100%
Baromètre: 1019 hPa
Nuageux: Overcast
visibilité: 2.6 km
Détails des nuages: Nuageux 91.4 m
LFAT 231630Z AUTO 22008KT 180V260 2600 -DZ BR OVC003 14/14 Q1019 TEMPO RADZ
  

Script développé par  Saratoga-weather.org Adapté pour le modèle par  Weerstation Leuven

Vous trouverez notre info météo Également à:

European Weather Network

WeatherCloud

Weather Underground

AWEKAS

Citizen Weather Observer Program (CWOP)

HAMweather, WeatherForYou, PWS Weather

Équipement que nous utilisons:

Station de Météo
Oregon WMR 200

Programme Météo
cumulus

Ordinateur Météo
Zotac ID41

Provider
Hébergé par

Oregon WMR 200

cumulus

Zotac ID41

Hébergé par